Latest Coastal Weather Observations for Swanbourne

IDW60701

Issued at 11:15 am WST Friday 28 November 2014 (issued every 10 minutes, with the page automatically refreshed every 10 minutes)

About coastal observations | Map of coastal stations | Coastal observations for WA | Marine services | Other Formats
Station Details ID: 009215 Name: SWANBOURNE Lat: -31.96 Lon: 115.76 Height: 40.96 m
Data from the previous 72 hours. | See also: Recent months at Swanbourne
Date/Time
WST
Temp

°C
Wind Pressure Rain
since 9am
mm
Weather Cloud Vis
km
Sea
Height
m
Swell
Dir
 
Speed
knots
Gust
knots
hPa Trend Height
m
Period
s
Dir
28/11:00am 21.9 SW 11 15 - - 0.0 - - - - - - -
28/10:30am 21.9 SW 13 17 - - 0.0 - - - - - - -
28/10:00am 22.7 SSW 13 18 - - 0.0 - - - - - - -
28/09:30am 22.8 SSW 10 16 - - 0.0 - - - - - - -
28/09:00am 21.7 SW 11 15 - - 0.8 - - - - - - -
28/08:30am 21.0 SW 9 15 - - 0.8 - - - - - - -
28/08:00am 21.0 SW 9 13 - - 0.8 - - - - - - -
28/07:30am 21.1 SW 8 12 - - 0.8 - - - - - - -
28/07:00am 20.3 SSW 4 8 - - 0.8 - - - - - - -
28/06:30am 19.9 S 3 5 - - 0.8 - - - - - - -
28/06:00am 18.2 SSW 4 5 - - 0.8 - - - - - - -
28/05:30am 17.4 SSW 4 5 - - 0.8 - - - - - - -
28/05:00am 17.6 SSE 2 2 - - 0.8 - - - - - - -
28/04:30am 17.8 SE 2 3 - - 0.8 - - - - - - -
28/04:00am 18.2 SSE 3 5 - - 0.8 - - - - - - -
28/03:30am 18.8 SSE 4 5 - - 0.8 - - - - - - -
28/03:00am 18.7 S 5 7 - - 0.8 - - - - - - -
28/02:30am 19.0 S 4 7 - - 0.8 - - - - - - -
28/02:00am 19.3 SSW 5 7 - - 0.8 - - - - - - -
28/01:30am 19.4 SSW 3 5 - - 0.8 - - - - - - -
28/01:00am 19.6 SSE 1 2 - - 0.8 - - - - - - -
28/12:30am 19.7 SSE 2 5 - - 0.8 - - - - - - -
28/12:00am 19.4 SE 5 6 - - 0.8 - - - - - - -
 
Date/Time
WST
Temp

°C
Wind Pressure Rain
since 9am
mm
Weather Cloud Vis
km
Sea
Height
m
Swell
Dir
 
Speed
knots
Gust
knots
hPa Trend Height
m
Period
s
Dir
27/11:30pm 19.2 SE 4 6 - - 0.8 - - - - - - -
27/11:00pm 19.4 SE 5 6 - - 0.8 - - - - - - -
27/10:30pm 19.5 S 3 5 - - 0.8 - - - - - - -
27/10:00pm 19.9 SSE 4 7 - - 0.8 - - - - - - -
27/09:30pm 20.2 S 5 8 - - 0.8 - - - - - - -
27/09:00pm 20.3 S 5 7 - - 0.8 - - - - - - -
27/08:30pm 21.0 SSW 7 10 - - 0.8 - - - - - - -
27/08:00pm 21.8 SE 5 6 - - 0.8 - - - - - - -
27/07:30pm 22.3 ESE 5 6 - - 0.8 - - - - - - -
27/07:00pm 23.1 ESE 5 7 - - 0.8 - - - - - - -
27/06:30pm 24.5 ESE 4 7 - - 0.8 - - - - - - -
27/06:00pm 25.1 ESE 6 9 - - 0.8 - - - - - - -
27/05:30pm 25.5 ESE 7 12 - - 0.8 - - - - - - -
27/05:00pm 25.2 ESE 9 14 - - 0.8 - - - - - - -
27/04:30pm 24.5 ESE 10 19 - - 0.8 - - - - - - -
27/04:00pm 24.6 SE 10 17 - - 0.8 - - - - - - -
27/03:30pm 23.5 SSE 9 14 - - 0.8 - - - - - - -
27/03:00pm 21.4 S 7 11 - - 0.8 Recent precip. - - - - - -
27/02:30pm 21.8 S 8 13 - - 0.4 - - - - - - -
27/02:00pm 22.5 SSW 10 15 - - 0.0 - - - - - - -
27/01:30pm 23.2 SSW 9 14 - - 0.0 - - - - - - -
27/01:00pm 26.1 SSW 11 15 - - 0.0 - - - - - - -
27/12:30pm 24.9 SSE 8 11 - - 0.0 - - - - - - -
27/12:00pm 24.9 S 6 10 - - 0.0 - - - - - - -
27/11:30am 23.4 SSE 6 8 - - 0.0 - - - - - - -
27/11:00am 24.0 S 6 10 - - 0.0 - - - - - - -
27/10:30am 22.4 SW 2 4 - - 0.0 - - - - - - -
27/10:00am 22.2 WSW 4 5 - - 0.0 - - - - - - -
27/09:30am 22.9 S 2 3 - - 0.0 - - - - - - -
27/09:00am 24.0 SSE 4 7 - - 9.2 - - - - - - -
27/08:30am 22.9 SSE 1 3 - - 9.2 - - - - - - -
27/08:00am 21.7 S 2 6 - - 9.2 - - - - - - -
27/07:30am 19.9 SSW 5 6 - - 9.2 - - - - - - -
27/07:00am 19.7 WSW 4 5 - - 9.2 - - - - - - -
27/06:30am 20.2 SSE 3 6 - - 8.6 - - - - - - -
27/06:00am 22.3 ENE 6 13 - - 8.2 - - - - - - -
27/05:30am 20.9 SW 10 17 - - 8.2 - - - - - - -
27/05:00am 21.3 W 3 5 - - 8.2 - - - - - - -
27/04:30am 21.3 NE 10 16 - - 8.2 - - - - - - -
27/04:00am 21.1 NE 8 14 - - 8.2 - - - - - - -
27/03:30am 21.1 ENE 11 15 - - 8.2 - - - - - - -
27/03:00am 20.9 ENE 9 14 - - 8.2 - - - - - - -
27/02:30am 21.3 ENE 11 16 - - 8.2 - - - - - - -
27/02:00am 21.0 ENE 9 13 - - 8.2 - - - - - - -
27/01:30am 21.6 ENE 11 16 - - 8.2 - - - - - - -
27/01:00am 21.4 ENE 12 20 - - 8.2 - - - - - - -
27/12:30am 20.9 ENE 10 16 - - 8.2 - - - - - - -
27/12:00am 21.3 E 12 18 - - 8.2 - - - - - - -
 
Date/Time
WST
Temp

°C
Wind Pressure Rain
since 9am
mm
Weather Cloud Vis
km
Sea
Height
m
Swell
Dir
 
Speed
knots
Gust
knots
hPa Trend Height
m
Period
s
Dir
26/11:30pm 21.3 E 9 13 - - 8.2 - - - - - - -
26/11:00pm 21.3 E 7 14 - - 8.2 - - - - - - -
26/10:30pm 21.6 E 10 17 - - 8.2 - - - - - - -
26/10:00pm 20.7 E 9 14 - - 8.2 - - - - - - -
26/09:30pm 19.4 E 8 11 - - 8.2 - - - - - - -
26/09:00pm 19.6 ESE 10 14 - - 8.0 Recent precip. - - - - - -
26/08:30pm 20.1 E 10 15 - - 7.8 - - - - - - -
26/08:00pm 19.2 E 12 21 - - 7.8 - - - - - - -
26/07:30pm 19.4 ENE 9 13 - - 7.4 - - - - - - -
26/07:00pm 19.6 E 7 11 - - 7.0 - - - - - - -
26/06:30pm 19.9 ESE 9 14 - - 6.6 - - - - - - -
26/06:00pm 20.0 E 8 13 - - 6.2 Recent precip. - - - - - -
26/05:30pm 20.7 E 9 16 - - 5.6 - - - - - - -
26/05:03pm 22.2 ENE 15 25 - - 5.0 - - - - - - -
26/05:00pm 22.2 ENE 14 23 - - 5.0 - - - - - - -
26/04:30pm 23.1 ENE 14 23 - - 4.8 - - - - - - -
26/04:00pm 22.1 E 12 20 - - 4.6 - - - - - - -
26/03:30pm 25.2 E 9 14 - - 3.8 - - - - - - -
26/03:00pm 24.6 SE 10 16 - - 3.8 Recent precip. - - - - - -
26/02:30pm 21.9 SE 11 17 - - 3.8 - - - - - - -
26/02:00pm 24.8 SE 8 12 - - 3.0 - - - - - - -
26/01:30pm 21.1 SSW 10 15 - - 3.0 - - - - - - -
26/01:00pm 24.1 SSE 5 9 - - 1.4 - - - - - - -
26/12:30pm 28.1 SE 5 8 - - 0.0 - - - - - - -
26/12:00pm 29.6 E 11 16 - - 0.0 - - - - - - -
26/11:30am 29.1 E 11 17 - - 0.0 - - - - - - -
26/11:00am 30.5 E 13 20 - - 0.0 - - - - - - -
26/10:30am 30.4 E 13 20 - - 0.0 - - - - - - -
26/10:00am 26.8 E 11 20 - - 0.0 - - - - - - -
26/09:30am 26.4 E 11 18 - - 0.0 - - - - - - -
26/09:00am 26.1 E 13 19 - - 0.0 - - - - - - -
26/08:30am 25.2 E 13 19 - - 0.0 - - - - - - -
26/08:00am 22.4 E 14 22 - - 0.0 - - - - - - -
26/07:30am 21.8 E 14 25 - - 0.0 - - - - - - -
26/07:00am 21.0 E 15 21 - - 0.0 - - - - - - -
26/06:45am 20.7 E 15 25 - - 0.0 - - - - - - -
26/06:30am 20.4 E 14 22 - - 0.0 - - - - - - -
26/06:00am 20.3 E 14 25 - - 0.0 - - - - - - -
26/05:30am 20.1 E 14 21 - - 0.0 - - - - - - -
26/05:00am 20.2 E 14 21 - - 0.0 - - - - - - -
26/04:30am 20.6 E 12 19 - - 0.0 - - - - - - -
26/04:00am 20.9 E 12 19 - - 0.0 - - - - - - -
26/03:30am 21.1 E 11 16 - - 0.0 - - - - - - -
26/03:00am 21.6 E 14 24 - - 0.0 - - - - - - -
26/02:30am 22.0 E 13 22 - - 0.0 - - - - - - -
26/02:00am 22.2 ESE 12 19 - - 0.0 - - - - - - -
26/01:30am 22.8 E 15 22 - - 0.0 - - - - - - -
26/01:02am 23.6 E 15 25 - - 0.0 - - - - - - -
26/01:00am 23.7 E 14 25 - - 0.0 - - - - - - -
26/12:30am 25.0 E 12 22 - - 0.0 - - - - - - -
26/12:00am 25.7 E 15 27 - - 0.0 - - - - - - -
 
Date/Time
WST
Temp

°C
Wind Pressure Rain
since 9am
mm
Weather Cloud Vis
km
Sea
Height
m
Swell
Dir
 
Speed
knots
Gust
knots
hPa Trend Height
m
Period
s
Dir
25/11:45pm 26.2 E 15 25 - - 0.0 - - - - - - -
25/11:30pm 26.1 ESE 12 22 - - 0.0 - - - - - - -
25/11:00pm 26.5 ESE 11 23 - - 0.0 - - - - - - -
25/10:30pm 26.7 ESE 10 15 - - 0.0 - - - - - - -
25/10:00pm 26.2 ESE 10 15 - - 0.0 - - - - - - -
25/09:30pm 24.8 SE 7 9 - - 0.0 - - - - - - -
25/09:00pm 24.9 SE 6 9 - - 0.0 - - - - - - -
25/08:30pm 25.5 SE 6 8 - - 0.0 - - - - - - -
25/08:00pm 26.0 SE 6 7 - - 0.0 - - - - - - -
25/07:30pm 26.4 SE 5 7 - - 0.0 - - - - - - -
25/07:00pm 25.7 SSE 4 7 - - 0.0 - - - - - - -
25/06:30pm 27.0 S 5 7 - - 0.0 - - - - - - -
25/06:00pm 28.4 S 6 9 - - 0.0 - - - - - - -
25/05:30pm 29.0 S 6 9 - - 0.0 - - - - - - -
25/05:00pm 28.6 SSW 10 18 - - 0.0 - - - - - - -
25/04:30pm 27.9 SSW 11 18 - - 0.0 - - - - - - -
25/04:00pm 27.4 SSW 12 19 - - 0.0 - - - - - - -
25/03:30pm 27.2 SSW 12 19 - - 0.0 - - - - - - -
25/03:00pm 29.1 SSW 12 21 - - 0.0 - - - - - - -
25/02:30pm 29.4 SSW 13 19 - - 0.0 - - - - - - -
25/02:00pm 29.5 SSW 13 18 - - 0.0 - - - - - - -
25/01:30pm 29.6 SSW 11 17 - - 0.0 - - - - - - -
25/01:00pm 30.3 SSW 8 13 - - 0.0 - - - - - - -
25/12:30pm 31.5 S 7 12 - - 0.0 - - - - - - -
25/12:00pm 32.0 SE 7 11 - - 0.0 - - - - - - -
25/11:30am 30.9 SE 9 13 - - 0.0 - - - - - - -

Other Formats:

Comma delimited format used in spreadsheet applications
http://www.bom.gov.au/fwo/IDW60701/IDW60701.94614.axf

JavaScript Object Notation format (JSON) in row-major order
http://www.bom.gov.au/fwo/IDW60701/IDW60701.94614.json